createdAt,value
2023-02-16T00:01:59.848Z,2.31
2023-02-16T00:04:29.840Z,2.29
2023-02-16T00:06:57.936Z,2.30
2023-02-16T00:09:25.394Z,2.29
2023-02-16T00:12:11.707Z,2.29
2023-02-16T00:14:40.225Z,2.26
2023-02-16T00:17:09.898Z,2.25
2023-02-16T00:19:38.972Z,2.27
2023-02-16T00:22:07.644Z,2.21
2023-02-16T00:24:37.951Z,2.23
2023-02-16T00:27:13.628Z,2.25
2023-02-16T00:29:40.995Z,2.24
2023-02-16T00:32:12.757Z,2.20
2023-02-16T00:34:43.016Z,2.23
2023-02-16T00:37:13.168Z,2.21
2023-02-16T00:39:42.656Z,2.23
2023-02-16T00:42:19.705Z,2.20
2023-02-16T00:44:52.134Z,2.24
2023-02-16T00:47:22.155Z,2.18
2023-02-16T00:49:52.382Z,2.18
2023-02-16T00:52:43.131Z,2.18
2023-02-16T00:55:16.626Z,2.18
2023-02-16T00:58:23.793Z,2.18
2023-02-16T01:01:06.130Z,2.16
2023-02-16T01:03:33.415Z,2.18
2023-02-16T01:06:18.995Z,2.19
2023-02-16T01:09:04.473Z,2.13
2023-02-16T01:11:31.619Z,2.09
2023-02-16T01:13:58.791Z,2.09
2023-02-16T01:16:38.289Z,2.09
2023-02-16T01:19:05.956Z,2.08
2023-02-16T01:21:33.286Z,2.04
2023-02-16T01:24:00.962Z,2.05
2023-02-16T01:26:28.223Z,2.05
2023-02-16T01:28:55.146Z,1.99
2023-02-16T01:31:22.159Z,1.98
2023-02-16T01:33:50.888Z,1.97
2023-02-16T01:36:28.703Z,1.91
2023-02-16T01:38:55.789Z,1.96
2023-02-16T01:41:40.808Z,1.97
2023-02-16T01:44:37.854Z,2.00
2023-02-16T01:47:33.474Z,1.94
2023-02-16T01:50:20.000Z,1.94
2023-02-16T01:53:00.699Z,1.93
2023-02-16T01:55:30.090Z,1.93
2023-02-16T01:58:16.664Z,1.87
2023-02-16T02:00:49.430Z,1.85
2023-02-16T02:03:47.779Z,1.85
2023-02-16T02:06:19.799Z,1.85
2023-02-16T02:08:49.802Z,1.83
2023-02-16T02:11:25.059Z,1.80
2023-02-16T02:14:06.219Z,1.76
2023-02-16T02:16:36.089Z,1.77
2023-02-16T02:19:03.180Z,1.78
2023-02-16T02:22:07.513Z,1.68
2023-02-16T02:25:01.993Z,1.61
2023-02-16T02:27:33.141Z,1.61
2023-02-16T02:30:52.447Z,1.55
2023-02-16T02:33:34.280Z,1.50
2023-02-16T02:36:55.245Z,1.49
2023-02-16T02:39:34.850Z,1.46
2023-02-16T02:42:14.046Z,1.37
2023-02-16T02:44:50.473Z,1.35
2023-02-16T02:47:17.473Z,1.32
2023-02-16T02:49:52.438Z,1.35
2023-02-16T02:52:21.020Z,1.31
2023-02-16T02:55:07.063Z,1.30
2023-02-16T02:58:06.521Z,1.23
2023-02-16T03:00:45.226Z,1.15
2023-02-16T03:03:24.064Z,1.08
2023-02-16T03:06:02.453Z,1.11
2023-02-16T03:08:32.143Z,1.08
2023-02-16T03:11:26.019Z,1.03
2023-02-16T03:14:00.311Z,1.06
2023-02-16T03:16:39.108Z,1.05
2023-02-16T03:19:27.744Z,1.10
2023-02-16T03:22:14.593Z,1.09
2023-02-16T03:25:00.622Z,1.03
2023-02-16T03:27:57.529Z,1.03
2023-02-16T03:30:26.277Z,0.94
2023-02-16T03:32:54.688Z,0.92
2023-02-16T03:35:22.113Z,0.97
2023-02-16T03:37:49.505Z,0.98
2023-02-16T03:40:30.296Z,0.88
2023-02-16T03:43:05.451Z,0.90
2023-02-16T03:45:35.365Z,1.03
2023-02-16T03:48:02.491Z,1.04
2023-02-16T03:50:29.981Z,1.01
2023-02-16T03:53:07.108Z,0.99
2023-02-16T03:55:34.108Z,0.98
2023-02-16T03:58:01.360Z,0.85
2023-02-16T04:00:28.972Z,0.88
2023-02-16T04:02:55.860Z,1.05
2023-02-16T04:05:22.956Z,1.03
2023-02-16T04:07:52.790Z,1.01
2023-02-16T04:10:20.351Z,1.06
2023-02-16T04:12:47.649Z,1.18
2023-02-16T04:15:17.880Z,1.11
2023-02-16T04:17:45.456Z,1.13
2023-02-16T04:20:19.079Z,1.20
2023-02-16T04:22:46.608Z,1.25
2023-02-16T04:25:14.998Z,1.23
2023-02-16T04:27:42.692Z,1.25
2023-02-16T04:30:16.658Z,1.27
2023-02-16T04:32:43.757Z,1.29
2023-02-16T04:35:11.118Z,1.31
2023-02-16T04:37:38.186Z,1.31
2023-02-16T04:40:06.921Z,1.30
2023-02-16T04:42:34.164Z,1.28
2023-02-16T04:45:06.060Z,1.28
2023-02-16T04:47:32.926Z,1.36
2023-02-16T04:49:59.808Z,1.42
2023-02-16T04:52:26.930Z,1.43
2023-02-16T04:54:53.993Z,1.44
2023-02-16T04:57:22.744Z,1.45
2023-02-16T04:59:49.641Z,1.46
2023-02-16T05:02:16.584Z,1.49
2023-02-16T05:04:43.787Z,1.51
2023-02-16T05:07:10.676Z,1.49
2023-02-16T05:09:37.584Z,1.48
2023-02-16T05:12:23.028Z,1.45
2023-02-16T05:14:52.789Z,1.41
2023-02-16T05:17:24.491Z,1.40
2023-02-16T05:20:02.089Z,1.39
2023-02-16T05:22:29.610Z,1.33
2023-02-16T05:24:56.530Z,1.29
2023-02-16T05:27:26.810Z,1.24
2023-02-16T05:29:54.091Z,1.21
2023-02-16T05:32:21.702Z,1.15
2023-02-16T05:34:48.631Z,1.09
2023-02-16T05:37:17.185Z,1.06
2023-02-16T05:39:47.011Z,1.08
2023-02-16T05:42:14.394Z,1.08
2023-02-16T05:44:41.507Z,1.04
2023-02-16T05:47:08.554Z,1.05
2023-02-16T05:49:35.361Z,1.06
2023-02-16T05:52:02.492Z,1.04
2023-02-16T05:54:32.484Z,1.04
2023-02-16T05:56:59.822Z,1.03
2023-02-16T05:59:26.611Z,1.03
2023-02-16T06:01:58.924Z,1.04
2023-02-16T06:04:25.937Z,1.08
2023-02-16T06:06:52.752Z,1.09
2023-02-16T06:09:19.622Z,1.05
2023-02-16T06:11:46.847Z,1.14
2023-02-16T06:14:17.802Z,1.19
2023-02-16T06:16:47.911Z,1.19
2023-02-16T06:19:17.070Z,1.18
2023-02-16T06:21:44.639Z,1.22
2023-02-16T06:24:13.611Z,1.22
2023-02-16T06:26:41.012Z,1.22
2023-02-16T06:29:08.189Z,1.21
2023-02-16T06:31:36.816Z,1.21
2023-02-16T06:34:04.788Z,1.19
2023-02-16T06:36:32.092Z,1.20
2023-02-16T06:38:59.247Z,1.19
2023-02-16T06:41:32.454Z,1.21
2023-02-16T06:44:07.086Z,1.25
2023-02-16T06:46:34.257Z,1.33
2023-02-16T06:49:04.475Z,1.39
2023-02-16T06:51:31.892Z,1.48
2023-02-16T06:53:59.113Z,1.53
2023-02-16T06:56:28.926Z,1.59
2023-02-16T06:58:55.972Z,1.70
2023-02-16T07:01:26.284Z,1.78
2023-02-16T07:03:55.009Z,1.87
2023-02-16T07:06:27.541Z,1.90
2023-02-16T07:08:54.439Z,1.94
2023-02-16T07:11:21.973Z,2.00
2023-02-16T07:13:49.046Z,2.07
2023-02-16T07:16:16.490Z,2.10
2023-02-16T07:18:43.512Z,2.16
2023-02-16T07:21:10.447Z,2.17
2023-02-16T07:23:37.599Z,2.16
2023-02-16T07:26:04.967Z,2.18
2023-02-16T07:28:31.888Z,2.23
2023-02-16T07:30:59.011Z,2.25
2023-02-16T07:33:28.802Z,2.37
2023-02-16T07:35:55.810Z,2.41
2023-02-16T07:38:22.444Z,2.46
2023-02-16T07:40:49.369Z,2.54
2023-02-16T07:43:16.445Z,2.61
2023-02-16T07:45:43.375Z,2.65
2023-02-16T07:48:10.399Z,2.70
2023-02-16T07:50:37.745Z,2.74
2023-02-16T07:53:06.869Z,2.73
2023-02-16T07:55:46.898Z,2.81
2023-02-16T07:58:27.696Z,2.85
2023-02-16T08:01:09.977Z,2.86
2023-02-16T08:03:37.717Z,2.99
2023-02-16T08:06:04.828Z,3.07
2023-02-16T08:08:32.350Z,3.15
2023-02-16T08:10:59.398Z,3.37
2023-02-16T08:13:26.407Z,3.44
2023-02-16T08:15:53.446Z,3.61
2023-02-16T08:18:20.391Z,3.85
2023-02-16T08:21:02.767Z,4.05
2023-02-16T08:23:31.882Z,4.17
2023-02-16T08:25:59.424Z,4.22
2023-02-16T08:28:29.078Z,4.38
2023-02-16T08:30:58.904Z,4.53
2023-02-16T08:33:25.889Z,4.56
2023-02-16T08:35:53.364Z,4.53
2023-02-16T08:38:20.993Z,4.71
2023-02-16T08:40:51.240Z,4.80
2023-02-16T08:43:18.380Z,4.96
2023-02-16T08:45:49.162Z,4.92
2023-02-16T08:48:17.078Z,4.90
2023-02-16T08:50:56.460Z,4.99
2023-02-16T08:53:25.506Z,4.91
2023-02-16T08:55:55.254Z,4.93
2023-02-16T08:58:23.417Z,5.12
2023-02-16T09:00:51.303Z,5.08
2023-02-16T09:03:20.906Z,5.10
2023-02-16T09:05:50.470Z,5.29
2023-02-16T09:08:17.619Z,5.34
2023-02-16T09:10:44.490Z,5.35
2023-02-16T09:13:15.234Z,5.54
2023-02-16T09:15:44.032Z,5.71
2023-02-16T09:18:15.486Z,5.81
2023-02-16T09:20:46.802Z,5.85
2023-02-16T09:23:16.975Z,5.69
2023-02-16T09:25:43.978Z,5.81
2023-02-16T09:28:11.371Z,5.94
2023-02-16T09:30:38.703Z,5.96
2023-02-16T09:33:06.086Z,6.19
2023-02-16T09:35:33.337Z,6.27
2023-02-16T09:38:00.231Z,6.34
2023-02-16T09:40:27.364Z,6.45
2023-02-16T09:43:07.425Z,6.49
2023-02-16T09:45:42.811Z,6.48
2023-02-16T09:48:35.969Z,6.49
2023-02-16T09:51:05.596Z,6.26
2023-02-16T09:53:45.502Z,6.12
2023-02-16T09:56:36.288Z,6.08
2023-02-16T09:59:16.320Z,6.04
2023-02-16T10:02:15.265Z,6.01
2023-02-16T10:05:02.547Z,5.98
2023-02-16T10:07:47.911Z,5.95
2023-02-16T10:10:21.267Z,5.96
2023-02-16T10:12:55.335Z,5.94
2023-02-16T10:15:27.011Z,5.93
2023-02-16T10:18:11.094Z,6.06
2023-02-16T10:20:40.950Z,6.21
2023-02-16T10:23:29.976Z,6.24
2023-02-16T10:25:59.795Z,6.36
2023-02-16T10:28:41.406Z,6.45
2023-02-16T10:31:48.795Z,6.61
2023-02-16T10:34:36.543Z,6.53
2023-02-16T10:37:23.198Z,6.52
2023-02-16T10:40:17.542Z,6.62
2023-02-16T10:42:53.780Z,6.66
2023-02-16T10:45:52.908Z,6.85
2023-02-16T10:48:22.184Z,6.94
2023-02-16T10:51:07.079Z,6.98
2023-02-16T10:53:51.818Z,7.11
2023-02-16T10:56:39.515Z,7.21
2023-02-16T10:59:20.843Z,7.26
2023-02-16T11:01:56.215Z,7.27
2023-02-16T11:04:42.398Z,7.20
2023-02-16T11:07:13.270Z,7.15
2023-02-16T11:09:42.222Z,7.21
2023-02-16T11:12:35.499Z,7.20
2023-02-16T11:15:22.181Z,7.30
2023-02-16T11:18:04.959Z,7.31
2023-02-16T11:20:45.315Z,7.45
2023-02-16T11:23:26.423Z,7.45
2023-02-16T11:26:01.360Z,7.39
2023-02-16T11:28:32.471Z,7.41
2023-02-16T11:31:12.209Z,7.48
2023-02-16T11:33:44.574Z,7.56
2023-02-16T11:36:48.364Z,7.60
2023-02-16T11:39:18.909Z,7.66
2023-02-16T11:42:02.896Z,7.57
2023-02-16T11:44:34.069Z,7.67
2023-02-16T11:47:04.303Z,7.67
2023-02-16T11:49:38.680Z,7.55
2023-02-16T11:52:23.738Z,7.59
2023-02-16T11:54:54.226Z,7.57
2023-02-16T11:57:27.201Z,7.60
2023-02-16T11:59:55.502Z,7.47
2023-02-16T12:02:50.583Z,7.60
2023-02-16T12:05:36.352Z,7.60
2023-02-16T12:08:32.778Z,7.49
2023-02-16T12:11:17.869Z,7.67
2023-02-16T12:14:12.578Z,7.79
2023-02-16T12:16:51.148Z,7.71
2023-02-16T12:19:44.758Z,7.76
2023-02-16T12:22:14.642Z,7.56
2023-02-16T12:25:04.066Z,7.62
2023-02-16T12:27:43.051Z,7.48
2023-02-16T12:30:12.793Z,7.46
2023-02-16T12:33:17.365Z,7.45
2023-02-16T12:36:08.456Z,7.52
2023-02-16T12:39:10.180Z,7.56
2023-02-16T12:42:08.663Z,7.39
2023-02-16T12:44:46.960Z,7.30
2023-02-16T12:47:26.411Z,7.41
2023-02-16T12:49:59.937Z,7.48
2023-02-16T12:52:35.551Z,7.52
2023-02-16T12:55:33.641Z,7.51
2023-02-16T12:58:10.232Z,7.48
2023-02-16T13:00:39.975Z,7.48
2023-02-16T13:03:26.476Z,7.55
2023-02-16T13:06:25.222Z,7.57
2023-02-16T13:08:56.752Z,7.58
2023-02-16T13:11:51.701Z,7.46
2023-02-16T13:14:27.619Z,7.54
2023-02-16T13:17:10.974Z,7.50
2023-02-16T13:19:37.928Z,7.54
2023-02-16T13:22:22.330Z,7.60
2023-02-16T13:25:08.200Z,7.52
2023-02-16T13:28:12.966Z,7.47
2023-02-16T13:30:58.910Z,7.61
2023-02-16T13:33:37.895Z,7.49
2023-02-16T13:36:19.247Z,7.34
2023-02-16T13:38:54.828Z,7.27
2023-02-16T13:41:43.362Z,7.33
2023-02-16T13:44:21.381Z,7.41
2023-02-16T13:46:53.058Z,7.45
2023-02-16T13:49:43.528Z,7.53
2023-02-16T13:52:27.680Z,7.53
2023-02-16T13:54:54.815Z,7.55
2023-02-16T13:57:50.336Z,7.53
2023-02-16T14:00:39.512Z,7.48
2023-02-16T14:03:21.430Z,7.40
2023-02-16T14:05:54.447Z,7.40
2023-02-16T14:08:31.586Z,7.39
2023-02-16T14:11:01.648Z,7.44
2023-02-16T14:13:33.348Z,7.36
2023-02-16T14:16:25.437Z,7.38
2023-02-16T14:19:06.200Z,7.33
2023-02-16T14:22:09.535Z,7.26
2023-02-16T14:24:38.933Z,7.31
2023-02-16T14:27:09.530Z,7.33
2023-02-16T14:30:00.182Z,7.24
2023-02-16T14:32:34.199Z,7.21
2023-02-16T14:35:08.978Z,7.26
2023-02-16T14:37:41.648Z,7.27
2023-02-16T14:40:16.452Z,7.22
2023-02-16T14:42:50.583Z,7.21
2023-02-16T14:45:37.594Z,7.23
2023-02-16T14:48:22.955Z,7.26
2023-02-16T14:50:56.839Z,7.21
2023-02-16T14:53:48.910Z,7.20
2023-02-16T14:56:37.868Z,7.15
2023-02-16T14:59:23.214Z,7.17
2023-02-16T15:01:50.122Z,7.15
2023-02-16T15:04:32.075Z,7.12
2023-02-16T15:07:03.635Z,7.15
2023-02-16T15:09:34.872Z,7.17
2023-02-16T15:12:24.569Z,7.19
2023-02-16T15:14:56.974Z,7.12
2023-02-16T15:17:45.082Z,7.13
2023-02-16T15:20:25.665Z,7.14
2023-02-16T15:23:01.675Z,7.14
2023-02-16T15:25:34.757Z,7.11
2023-02-16T15:28:23.618Z,7.11
2023-02-16T15:30:54.399Z,7.06
2023-02-16T15:33:24.225Z,7.03
2023-02-16T15:35:57.609Z,7.05
2023-02-16T15:38:46.049Z,7.07
2023-02-16T15:41:25.717Z,6.97
2023-02-16T15:43:52.747Z,6.99
2023-02-16T15:46:33.651Z,6.91
2023-02-16T15:49:11.732Z,6.90
2023-02-16T15:51:39.445Z,6.89
2023-02-16T15:54:17.237Z,6.85
2023-02-16T15:56:45.378Z,6.79
2023-02-16T15:59:26.493Z,6.73
2023-02-16T16:02:34.054Z,6.70
2023-02-16T16:05:04.306Z,6.55
2023-02-16T16:07:40.618Z,6.57
2023-02-16T16:10:15.923Z,6.55
2023-02-16T16:12:44.108Z,6.51
2023-02-16T16:15:23.860Z,6.51
2023-02-16T16:17:53.045Z,6.48
2023-02-16T16:20:31.323Z,6.48
2023-02-16T16:23:04.915Z,6.52
2023-02-16T16:25:40.570Z,6.52
2023-02-16T16:28:11.709Z,6.50
2023-02-16T16:30:45.500Z,6.45
2023-02-16T16:33:14.934Z,6.44
2023-02-16T16:35:47.905Z,6.42
2023-02-16T16:38:27.853Z,6.44
2023-02-16T16:41:04.681Z,6.49
2023-02-16T16:43:37.666Z,6.42
2023-02-16T16:46:25.454Z,6.39
2023-02-16T16:49:00.274Z,6.45
2023-02-16T16:51:30.710Z,6.39
2023-02-16T16:54:35.915Z,6.41
2023-02-16T16:57:18.868Z,6.41
2023-02-16T16:59:45.740Z,6.38
2023-02-16T17:02:12.670Z,6.35
2023-02-16T17:04:40.206Z,6.36
2023-02-16T17:07:07.201Z,6.32
2023-02-16T17:09:34.197Z,6.37
2023-02-16T17:12:01.039Z,6.37
2023-02-16T17:14:28.605Z,6.30
2023-02-16T17:16:56.505Z,6.32
2023-02-16T17:19:23.723Z,6.34
2023-02-16T17:21:50.767Z,6.26
2023-02-16T17:24:17.621Z,6.29
2023-02-16T17:26:44.668Z,6.22
2023-02-16T17:29:12.112Z,6.21
2023-02-16T17:31:39.369Z,6.16
2023-02-16T17:34:09.172Z,6.15
2023-02-16T17:36:37.617Z,6.16
2023-02-16T17:39:04.864Z,6.09
2023-02-16T17:41:32.638Z,6.09
2023-02-16T17:43:59.741Z,6.06
2023-02-16T17:46:28.534Z,6.12
2023-02-16T17:48:55.713Z,6.11
2023-02-16T17:51:25.748Z,6.15
2023-02-16T17:53:53.041Z,6.14
2023-02-16T17:56:22.518Z,6.10
2023-02-16T17:58:50.333Z,6.12
2023-02-16T18:01:18.875Z,6.13
2023-02-16T18:03:46.082Z,6.09
2023-02-16T18:06:15.712Z,6.08
2023-02-16T18:08:43.189Z,6.09
2023-02-16T18:11:10.761Z,6.06
2023-02-16T18:13:37.698Z,6.09
2023-02-16T18:16:07.670Z,6.09
2023-02-16T18:18:38.011Z,6.11
2023-02-16T18:21:05.469Z,6.08
2023-02-16T18:23:33.158Z,6.06
2023-02-16T18:26:00.203Z,6.06
2023-02-16T18:28:29.544Z,6.05
2023-02-16T18:30:57.318Z,6.07
2023-02-16T18:33:24.733Z,6.07
2023-02-16T18:35:54.287Z,6.07
2023-02-16T18:38:22.659Z,6.07
2023-02-16T18:40:52.970Z,6.05
2023-02-16T18:43:20.337Z,6.07
2023-02-16T18:45:48.016Z,6.03
2023-02-16T18:48:15.063Z,6.02
2023-02-16T18:50:41.940Z,6.08
2023-02-16T18:53:10.384Z,6.07
2023-02-16T18:55:37.235Z,6.06
2023-02-16T18:58:07.746Z,5.99
2023-02-16T19:00:35.082Z,6.06
2023-02-16T19:03:02.250Z,6.01
2023-02-16T19:05:30.866Z,5.93
2023-02-16T19:07:59.436Z,5.90
2023-02-16T19:10:26.716Z,5.90
2023-02-16T19:12:56.256Z,5.91
2023-02-16T19:15:23.855Z,5.90
2023-02-16T19:17:51.707Z,5.88
2023-02-16T19:20:19.968Z,5.85
2023-02-16T19:22:47.362Z,5.91
2023-02-16T19:25:15.457Z,5.85
2023-02-16T19:27:43.880Z,5.89
2023-02-16T19:30:11.665Z,5.83
2023-02-16T19:32:41.295Z,5.84
2023-02-16T19:35:12.168Z,5.85
2023-02-16T19:37:39.613Z,5.84
2023-02-16T19:40:08.705Z,5.82
2023-02-16T19:42:36.809Z,5.87
2023-02-16T19:45:07.316Z,5.86
2023-02-16T19:47:36.782Z,5.89
2023-02-16T19:50:03.988Z,5.91
2023-02-16T19:52:31.318Z,5.90
2023-02-16T19:54:58.409Z,5.86
2023-02-16T19:57:25.430Z,5.90
2023-02-16T19:59:52.660Z,5.90
2023-02-16T20:02:19.579Z,5.93
2023-02-16T20:04:49.284Z,5.91
2023-02-16T20:07:16.629Z,5.94
2023-02-16T20:09:43.625Z,5.94
2023-02-16T20:12:10.757Z,5.95
2023-02-16T20:14:37.622Z,5.98
2023-02-16T20:17:04.408Z,5.96
2023-02-16T20:19:31.336Z,5.98
2023-02-16T20:22:01.133Z,5.96
2023-02-16T20:24:28.020Z,5.95
2023-02-16T20:26:54.900Z,5.95
2023-02-16T20:29:21.893Z,5.94
2023-02-16T20:31:52.945Z,5.99
2023-02-16T20:34:20.382Z,5.98
2023-02-16T20:36:47.594Z,6.04
2023-02-16T20:39:14.476Z,5.95
2023-02-16T20:41:41.751Z,5.95
2023-02-16T20:44:09.655Z,5.97
2023-02-16T20:46:38.023Z,6.01
2023-02-16T20:49:07.015Z,5.98
2023-02-16T20:51:34.329Z,6.00
2023-02-16T20:54:03.115Z,6.02
2023-02-16T20:56:30.735Z,6.05
2023-02-16T20:58:59.296Z,6.00
2023-02-16T21:01:28.835Z,6.03
2023-02-16T21:03:57.235Z,6.01
2023-02-16T21:06:25.821Z,6.04
2023-02-16T21:08:53.093Z,6.04
2023-02-16T21:11:22.709Z,6.02
2023-02-16T21:13:49.891Z,6.05
2023-02-16T21:16:16.719Z,6.04
2023-02-16T21:18:44.555Z,6.08
2023-02-16T21:21:15.822Z,6.05
2023-02-16T21:23:45.052Z,6.04
2023-02-16T21:26:12.812Z,6.06
2023-02-16T21:28:40.180Z,6.07
2023-02-16T21:31:10.133Z,6.09
2023-02-16T21:33:38.347Z,6.14
2023-02-16T21:36:14.561Z,6.12
2023-02-16T21:38:42.492Z,6.08
2023-02-16T21:41:26.389Z,6.13
2023-02-16T21:44:08.358Z,6.12
2023-02-16T21:46:36.594Z,6.16
2023-02-16T21:49:06.928Z,6.15
2023-02-16T21:51:36.924Z,6.17
2023-02-16T21:54:14.179Z,6.20
2023-02-16T21:56:44.047Z,6.21
2023-02-16T21:59:13.714Z,6.19
2023-02-16T22:01:43.462Z,6.21
2023-02-16T22:04:17.343Z,6.25
2023-02-16T22:06:47.177Z,6.22
2023-02-16T22:09:18.144Z,6.22
2023-02-16T22:11:48.880Z,6.24
2023-02-16T22:14:15.956Z,6.24
2023-02-16T22:16:45.260Z,6.32
2023-02-16T22:19:13.839Z,6.29
2023-02-16T22:21:43.032Z,6.36
2023-02-16T22:24:14.586Z,6.30
2023-02-16T22:26:42.169Z,6.34
2023-02-16T22:29:09.964Z,6.36
2023-02-16T22:31:37.408Z,6.37
2023-02-16T22:34:07.217Z,6.40
2023-02-16T22:36:34.566Z,6.42
2023-02-16T22:39:01.518Z,6.43
2023-02-16T22:41:28.511Z,6.45
2023-02-16T22:43:56.681Z,6.44
2023-02-16T22:46:24.905Z,6.46
2023-02-16T22:48:52.593Z,6.50
2023-02-16T22:51:21.339Z,6.52
2023-02-16T22:53:48.420Z,6.47
2023-02-16T22:56:18.062Z,6.48
2023-02-16T22:58:46.013Z,6.53
2023-02-16T23:01:15.984Z,6.54
2023-02-16T23:03:43.390Z,6.58
2023-02-16T23:06:20.231Z,6.63
2023-02-16T23:08:51.588Z,6.64
2023-02-16T23:11:18.800Z,6.61
2023-02-16T23:13:45.921Z,6.66
2023-02-16T23:16:15.583Z,6.70
2023-02-16T23:18:43.543Z,6.71
2023-02-16T23:21:16.236Z,6.73
2023-02-16T23:23:43.530Z,6.75
2023-02-16T23:26:10.711Z,6.74
2023-02-16T23:28:39.710Z,6.80
2023-02-16T23:31:07.411Z,6.84
2023-02-16T23:33:34.598Z,6.87
2023-02-16T23:36:01.640Z,6.84
2023-02-16T23:38:28.534Z,6.90
2023-02-16T23:41:03.842Z,6.88
2023-02-16T23:43:31.106Z,6.88
2023-02-16T23:46:00.377Z,6.89
2023-02-16T23:48:27.955Z,6.90
2023-02-16T23:50:58.144Z,6.92
2023-02-16T23:53:27.668Z,6.93
2023-02-16T23:56:21.513Z,7.00
2023-02-16T23:58:49.634Z,6.94
